Polfoss — V2PN7 — position and weather

sailwx.info

Track history (hours):
 
Tides and Currents Weather Stations Pressure Air Temp Water Temp Dewpoint Dewpoint Depression Visibility Wind Speed Wind Dir Waves Ship Positions

Polfoss

Last reported at 2016-May-21 15:12 UTC. Time now 2016-May-24 13:52 UTC.
Position N 69°03' E 033°03'.

Length 82 m; draft 4.8 m.

Type: Cargo ship. MMSI: 305081000.

Date/timePositionNaut miles runAvg speedWind from/ knotsBaromVisibWave heightAir tempDewpointWater temp
2016-May-21 15:12N 69°03' E 033°03'4 6.5
2016-May-21 14:33N 68°58' E 033°02'2 2.1
2016-May-21 13:34N 68°56' E 033°02'0 0.0
2016-May-21 12:33N 68°56' E 033°02'0 0.0
2016-May-21 11:33N 68°56' E 033°02'0 0.0
2016-May-21 10:33N 68°56' E 033°02'0 0.0
2016-May-21 09:33N 68°56' E 033°02'0 0.0
2016-May-21 08:33N 68°56' E 033°02'0 0.0
2016-May-21 07:34N 68°56' E 033°02'0 0.0
2016-May-21 06:33N 68°56' E 033°02'0 0.0
2016-May-21 05:31N 68°56' E 033°02'0 0.2
2016-May-21 04:33N 68°57' E 033°01'6 5.9
2016-May-21 03:33N 69°02' E 033°03'  
2016-May-14 08:22N 69°19' E 017°59'910.9
2016-May-14 07:33N 69°10' E 017°57'164 9.0
2016-May-13 13:24N 66°60' E 013°29'1814.5
2016-May-13 12:09N 66°43' E 013°11'1214.5
2016-May-13 11:19N 66°32' E 012°58'7414.3
2016-May-13 06:08N 65°21' E 012°03'915.1
2016-May-13 05:34N 65°14' E 011°54'1514.8
2016-May-13 04:34N 65°00' E 011°38'1514.7
2016-May-13 03:33N 64°51' E 011°12'8512.2
2016-May-12 20:33N 63°38' E 009°29'1514.6
2016-May-12 19:33N 63°29' E 009°02'  
Track history (hours):
 
Tides and Currents Weather Stations Pressure Air Temp Water Temp Dewpoint Dewpoint Depression Visibility Wind Speed Wind Dir Waves Ship Positions

Polfoss

Last reported at 2016-May-21 15:12 UTC. Time now 2016-May-24 13:52 UTC.
Position N 69°03' E 033°03'.

Length 82 m; draft 4.8 m.

Type: Cargo ship. MMSI: 305081000.

Date/timePositionNaut miles runAvg speedWind from/ knotsBaromVisibWave heightAir tempDewpointWater temp
2016-May-21 15:12N 69°03' E 033°03'4 6.5
2016-May-21 14:33N 68°58' E 033°02'2 2.1
2016-May-21 13:34N 68°56' E 033°02'0 0.0
2016-May-21 12:33N 68°56' E 033°02'0 0.0
2016-May-21 11:33N 68°56' E 033°02'0 0.0
2016-May-21 10:33N 68°56' E 033°02'0 0.0
2016-May-21 09:33N 68°56' E 033°02'0 0.0
2016-May-21 08:33N 68°56' E 033°02'0 0.0
2016-May-21 07:34N 68°56' E 033°02'0 0.0
2016-May-21 06:33N 68°56' E 033°02'0 0.0
2016-May-21 05:31N 68°56' E 033°02'0 0.2
2016-May-21 04:33N 68°57' E 033°01'6 5.9
2016-May-21 03:33N 69°02' E 033°03'  
2016-May-14 08:22N 69°19' E 017°59'910.9
2016-May-14 07:33N 69°10' E 017°57'164 9.0
2016-May-13 13:24N 66°60' E 013°29'1814.5
2016-May-13 12:09N 66°43' E 013°11'1214.5
2016-May-13 11:19N 66°32' E 012°58'7414.3
2016-May-13 06:08N 65°21' E 012°03'915.1
2016-May-13 05:34N 65°14' E 011°54'1514.8
2016-May-13 04:34N 65°00' E 011°38'1514.7
2016-May-13 03:33N 64°51' E 011°12'8512.2
2016-May-12 20:33N 63°38' E 009°29'1514.6
2016-May-12 19:33N 63°29' E 009°02'  

Dump ship's entire track history